createdAt,value
2023-02-18T00:00:58.049Z,1642
2023-02-18T00:06:16.848Z,1650
2023-02-18T00:11:35.359Z,1647
2023-02-18T00:16:53.607Z,1648
2023-02-18T00:22:12.062Z,1712
2023-02-18T00:27:30.304Z,1738
2023-02-18T00:32:48.797Z,1763
2023-02-18T00:38:07.284Z,1769
2023-02-18T00:43:25.534Z,1784
2023-02-18T00:48:44.179Z,1795
2023-02-18T00:54:02.959Z,1805
2023-02-18T00:59:21.207Z,1811
2023-02-18T01:04:39.709Z,1816
2023-02-18T01:09:57.718Z,1804
2023-02-18T01:15:16.532Z,1796
2023-02-18T01:20:34.712Z,1793
2023-02-18T01:25:52.708Z,1804
2023-02-18T01:31:11.604Z,1809
2023-02-18T01:36:30.596Z,1824
2023-02-18T01:41:49.330Z,1823
2023-02-18T01:47:08.156Z,1825
2023-02-18T01:52:26.626Z,1835
2023-02-18T01:57:44.867Z,1819
2023-02-18T02:02:47.469Z,1817
2023-02-18T02:08:05.892Z,1818
2023-02-18T02:13:24.357Z,1806
2023-02-18T02:18:42.887Z,1810
2023-02-18T02:24:01.102Z,1811
2023-02-18T02:29:19.328Z,1818
2023-02-18T02:34:37.810Z,1815
2023-02-18T02:39:56.583Z,1802
2023-02-18T02:45:15.074Z,1794
2023-02-18T02:50:33.307Z,1804
2023-02-18T02:55:51.794Z,1807
2023-02-18T03:01:10.101Z,1796
2023-02-18T03:06:28.372Z,1793
2023-02-18T03:11:46.660Z,1792
2023-02-18T03:17:04.836Z,1792
2023-02-18T03:22:22.842Z,1786
2023-02-18T03:27:40.817Z,1783
2023-02-18T03:32:59.623Z,1774
2023-02-18T03:38:17.554Z,1771
2023-02-18T03:43:36.340Z,1765
2023-02-18T03:48:54.804Z,1769
2023-02-18T03:54:13.330Z,1773
2023-02-18T03:59:31.881Z,1772
2023-02-18T04:04:50.114Z,1773
2023-02-18T04:10:08.595Z,1759
2023-02-18T04:15:27.125Z,1751
2023-02-18T04:20:45.333Z,1754
2023-02-18T04:26:03.602Z,1752
2023-02-18T04:31:22.224Z,1744
2023-02-18T04:36:40.956Z,1746
2023-02-18T04:41:59.452Z,1741
2023-02-18T04:47:17.966Z,1737
2023-02-18T04:52:36.212Z,1737
2023-02-18T04:57:54.985Z,1742
2023-02-18T05:03:13.753Z,1742
2023-02-18T05:08:32.266Z,1763
2023-02-18T05:13:50.749Z,1762
2023-02-18T05:19:09.256Z,1767
2023-02-18T05:24:28.040Z,1759
2023-02-18T05:29:46.304Z,1762
2023-02-18T05:35:04.942Z,1772
2023-02-18T05:40:23.432Z,1774
2023-02-18T05:45:41.632Z,1776
2023-02-18T05:51:00.296Z,1773
2023-02-18T05:56:19.055Z,1765
2023-02-18T06:01:37.370Z,1761
2023-02-18T06:06:55.316Z,1749
2023-02-18T06:12:13.508Z,1738
2023-02-18T06:17:31.713Z,1524
2023-02-18T06:22:49.956Z,1525
2023-02-18T06:28:08.431Z,1570
2023-02-18T06:33:27.054Z,1600
2023-02-18T06:38:45.260Z,1603
2023-02-18T06:44:03.520Z,1624
2023-02-18T06:49:21.749Z,1637
2023-02-18T06:54:41.254Z,1661
2023-02-18T06:59:59.783Z,1654
2023-02-18T07:05:18.081Z,1656
2023-02-18T07:10:37.023Z,1665
2023-02-18T07:15:55.513Z,1669
2023-02-18T07:21:14.642Z,1661
2023-02-18T07:26:32.539Z,1653
2023-02-18T07:31:51.518Z,1656
2023-02-18T07:37:10.116Z,1656
2023-02-18T07:42:28.856Z,1647
2023-02-18T07:47:47.679Z,1653
2023-02-18T07:53:06.514Z,1649
2023-02-18T07:58:24.721Z,1640
2023-02-18T08:03:43.493Z,1646
2023-02-18T08:09:01.702Z,1648
2023-02-18T08:14:20.292Z,1656
2023-02-18T08:19:38.838Z,1681
2023-02-18T08:24:57.302Z,1709
2023-02-18T08:30:15.605Z,1711
2023-02-18T08:35:34.228Z,1741
2023-02-18T08:40:53.005Z,1787
2023-02-18T08:46:12.741Z,1780
2023-02-18T08:51:53.828Z,1781
2023-02-18T08:57:12.363Z,1786
2023-02-18T09:02:30.843Z,1781
2023-02-18T09:07:49.812Z,1784
2023-02-18T09:13:08.767Z,1794
2023-02-18T09:18:27.266Z,1769
2023-02-18T09:23:46.021Z,1755
2023-02-18T09:29:04.732Z,1756
2023-02-18T09:34:23.444Z,1740
2023-02-18T09:39:41.914Z,1472
2023-02-18T09:45:00.197Z,1458
2023-02-18T09:50:19.060Z,1463
2023-02-18T09:55:37.250Z,1475
2023-02-18T10:00:56.066Z,1472
2023-02-18T10:06:14.611Z,1473
2023-02-18T10:11:32.792Z,1478
2023-02-18T10:16:51.085Z,1493
2023-02-18T10:22:09.315Z,1502
2023-02-18T10:27:27.551Z,1510
2023-02-18T10:32:46.319Z,1526
2023-02-18T10:37:49.230Z,1543
2023-02-18T10:43:07.718Z,1550
2023-02-18T10:48:26.216Z,1540
2023-02-18T10:53:44.734Z,1528
2023-02-18T10:59:03.493Z,1531
2023-02-18T11:04:06.136Z,1470
2023-02-18T11:09:24.381Z,1388
2023-02-18T11:14:42.556Z,1407
2023-02-18T11:20:01.079Z,1385
2023-02-18T11:25:19.652Z,1423
2023-02-18T11:30:37.958Z,1435
2023-02-18T11:35:56.632Z,1376
2023-02-18T11:41:14.553Z,1263
2023-02-18T11:46:33.247Z,1160
2023-02-18T11:51:51.819Z,1082
2023-02-18T11:57:10.081Z,1012
2023-02-18T12:02:28.667Z,958
2023-02-18T12:07:31.315Z,916
2023-02-18T12:12:49.826Z,868
2023-02-18T12:18:07.748Z,821
2023-02-18T12:23:26.279Z,779
2023-02-18T12:28:44.755Z,744
2023-02-18T12:34:03.241Z,720
2023-02-18T12:39:21.265Z,697
2023-02-18T12:44:39.499Z,683
2023-02-18T12:49:58.484Z,686
2023-02-18T12:55:16.692Z,689
2023-02-18T13:00:35.184Z,701
2023-02-18T13:05:53.650Z,716
2023-02-18T13:11:12.237Z,734
2023-02-18T13:16:31.199Z,751
2023-02-18T13:21:49.537Z,783
2023-02-18T13:27:07.753Z,813
2023-02-18T13:32:26.674Z,829
2023-02-18T13:37:45.152Z,849
2023-02-18T13:43:03.988Z,883
2023-02-18T13:48:22.269Z,918
2023-02-18T13:53:41.019Z,949
2023-02-18T13:58:59.653Z,902
2023-02-18T14:04:18.167Z,843
2023-02-18T14:09:36.736Z,835
2023-02-18T14:14:55.427Z,883
2023-02-18T14:20:13.418Z,933
2023-02-18T14:25:32.232Z,977
2023-02-18T14:30:50.843Z,1004
2023-02-18T14:36:09.745Z,1004
2023-02-18T14:41:27.934Z,1013
2023-02-18T14:46:46.448Z,1034
2023-02-18T14:52:04.941Z,1039
2023-02-18T14:57:23.130Z,848
2023-02-18T15:02:41.946Z,867
2023-02-18T15:08:00.592Z,875
2023-02-18T15:13:19.194Z,884
2023-02-18T15:18:37.864Z,863
2023-02-18T15:23:56.224Z,833
2023-02-18T15:29:14.703Z,806
2023-02-18T15:34:33.467Z,790
2023-02-18T15:39:51.542Z,784
2023-02-18T15:45:10.288Z,773
2023-02-18T15:50:28.426Z,781
2023-02-18T15:55:47.089Z,778
2023-02-18T16:01:05.928Z,771
2023-02-18T16:06:24.466Z,779
2023-02-18T16:11:42.998Z,780
2023-02-18T16:17:01.757Z,782
2023-02-18T16:22:20.115Z,790
2023-02-18T16:27:38.305Z,796
2023-02-18T16:32:56.990Z,803
2023-02-18T16:38:15.889Z,806
2023-02-18T16:43:34.246Z,810
2023-02-18T16:48:53.016Z,814
2023-02-18T16:54:11.220Z,822
2023-02-18T16:59:29.751Z,832
2023-02-18T17:04:48.506Z,838
2023-02-18T17:10:06.888Z,840
2023-02-18T17:15:24.890Z,845
2023-02-18T17:20:42.854Z,842
2023-02-18T17:26:03.528Z,842
2023-02-18T17:31:21.777Z,813
2023-02-18T17:36:40.603Z,798
2023-02-18T17:41:58.829Z,786
2023-02-18T17:47:17.282Z,771
2023-02-18T17:52:36.092Z,774
2023-02-18T17:57:54.904Z,779
2023-02-18T18:03:13.584Z,782
2023-02-18T18:08:32.092Z,791
2023-02-18T18:13:50.588Z,794
2023-02-18T18:19:09.057Z,799
2023-02-18T18:24:27.542Z,815
2023-02-18T18:29:45.955Z,863
2023-02-18T18:35:04.176Z,927
2023-02-18T18:40:22.406Z,991
2023-02-18T18:45:40.611Z,977
2023-02-18T18:50:59.117Z,993
2023-02-18T18:56:23.833Z,1005
2023-02-18T19:01:42.620Z,993
2023-02-18T19:07:01.796Z,1030
2023-02-18T19:12:26.123Z,1069
2023-02-18T19:17:45.003Z,1089
2023-02-18T19:23:03.255Z,1096
2023-02-18T19:28:22.065Z,1096
2023-02-18T19:33:40.620Z,1107
2023-02-18T19:38:43.196Z,1115
2023-02-18T19:44:01.684Z,1119
2023-02-18T19:49:20.063Z,1121
2023-02-18T19:54:38.901Z,1133
2023-02-18T19:59:57.177Z,1140
2023-02-18T20:05:15.438Z,1147
2023-02-18T20:10:34.168Z,1157
2023-02-18T20:15:52.701Z,1166
2023-02-18T20:21:11.338Z,1167
2023-02-18T20:26:30.203Z,1174
2023-02-18T20:31:48.211Z,1179
2023-02-18T20:37:06.818Z,1187
2023-02-18T20:42:25.330Z,1190
2023-02-18T20:47:43.523Z,1206
2023-02-18T20:53:02.153Z,1208
2023-02-18T20:58:21.269Z,1208
2023-02-18T21:03:40.221Z,1211
2023-02-18T21:08:58.798Z,1215
2023-02-18T21:14:16.733Z,1213
2023-02-18T21:19:38.632Z,1217
2023-02-18T21:24:57.183Z,1223
2023-02-18T21:30:15.699Z,1231
2023-02-18T21:35:34.339Z,1229
2023-02-18T21:40:52.826Z,1232
2023-02-18T21:46:11.306Z,1236
2023-02-18T21:51:29.525Z,1234
2023-02-18T21:56:48.318Z,1236
2023-02-18T22:02:06.743Z,1233
2023-02-18T22:07:24.985Z,1233
2023-02-18T22:12:43.496Z,1236
2023-02-18T22:18:01.711Z,1254
2023-02-18T22:23:19.928Z,1285
2023-02-18T22:28:38.724Z,1304
2023-02-18T22:33:56.998Z,1381
2023-02-18T22:39:15.197Z,1429
2023-02-18T22:44:18.550Z,1461
2023-02-18T22:49:36.733Z,1523
2023-02-18T22:54:55.497Z,1562
2023-02-18T23:00:14.198Z,1583
2023-02-18T23:05:32.407Z,1586
2023-02-18T23:10:51.180Z,1574
2023-02-18T23:16:10.066Z,1579
2023-02-18T23:21:28.346Z,1581
2023-02-18T23:26:46.819Z,1577
2023-02-18T23:32:05.114Z,1582
2023-02-18T23:37:23.368Z,1584
2023-02-18T23:42:41.839Z,1580
2023-02-18T23:48:00.101Z,1588
2023-02-18T23:53:18.736Z,1595
2023-02-18T23:58:37.520Z,1594
